Time;durP1;ratioP1;P1;durP2;ratioP2;P2;SDS_P1;SDS_P2;PMS_P1;PMS_P2;Temp;Humidity;BMP_temperature;BMP_pressure;BME280_temperature;BME280_humidity;BME280_pressure;Samples;Min_cycle;Max_cycle;Signal;HPM_P1;HPM_P2
2022/04/26 03:37:51;;;;;;;15.13;7.85;;;;;;;5.82;96.55;101589.31;6185153;23;20075;-75
2022/04/26 03:40:17;;;;;;;15.65;7.97;;;;;;;5.64;96.37;101563.38;6185135;23;20009;-75
2022/04/26 03:42:42;;;;;;;15.00;8.73;;;;;;;5.79;95.88;101579.16;6185333;23;20039;-76
2022/04/26 03:45:08;;;;;;;12.85;7.65;;;;;;;5.89;96.14;101585.66;6185525;23;20040;-76
2022/04/26 03:47:33;;;;;;;16.52;7.93;;;;;;;5.58;96.14;101537.09;6185544;23;20009;-75
2022/04/26 03:49:58;;;;;;;15.45;7.47;;;;;;;5.92;95.73;101590.75;6185095;23;20084;-75
2022/04/26 03:52:24;;;;;;;18.38;8.35;;;;;;;5.72;95.55;101560.56;6185544;23;19997;-75
2022/04/26 03:54:49;;;;;;;15.70;8.00;;;;;;;5.86;95.65;101580.63;6185021;23;20497;-77
2022/04/26 03:57:14;;;;;;;14.20;8.55;;;;;;;5.95;95.76;101599.16;6185355;23;20411;-76
2022/04/26 03:59:40;;;;;;;15.55;8.15;;;;;;;5.95;95.75;101600.88;6185144;23;20009;-75
2022/04/26 04:02:05;;;;;;;14.13;8.18;;;;;;;5.97;95.10;101596.56;6185451;23;20426;-76
2022/04/26 04:04:31;;;;;;;16.25;7.78;;;;;;;5.04;95.61;101445.72;6184701;22;20017;-75
2022/04/26 04:06:56;;;;;;;16.92;8.40;;;;;;;6.00;95.45;101599.03;6185149;23;20312;-75
2022/04/26 04:09:21;;;;;;;14.80;8.30;;;;;;;6.02;95.65;101602.38;6185348;23;20317;-75
2022/04/26 04:11:46;;;;;;;19.50;8.32;;;;;;;6.04;95.32;101605.72;6185335;23;20084;-75
2022/04/26 04:14:14;;;;;;;15.85;8.23;;;;;;;5.91;95.12;101583.94;6158227;23;20016;-75
2022/04/26 04:16:40;;;;;;;14.82;8.18;;;;;;;5.89;94.44;101577.97;6136242;23;20358;-75
2022/04/26 04:19:17;;;;;;;13.77;8.30;;;;;;;6.06;94.53;101606.50;6186711;23;20028;-76
2022/04/26 04:21:43;;;;;;;12.82;8.00;;;;;;;6.16;94.99;101615.59;6186825;23;20485;-76
2022/04/26 04:24:08;;;;;;;13.68;8.57;;;;;;;5.94;94.64;101584.66;6187056;23;20080;-76
2022/04/26 04:26:34;;;;;;;13.90;7.75;;;;;;;6.24;94.28;101623.03;6186838;23;20009;-76
2022/04/26 04:28:59;;;;;;;13.10;8.02;;;;;;;6.13;94.51;101602.03;6186669;23;20001;-76
2022/04/26 04:31:25;;;;;;;14.45;8.07;;;;;;;6.13;93.81;101602.88;6186987;23;20080;-76
2022/04/26 04:33:50;;;;;;;12.77;8.23;;;;;;;6.28;93.57;101625.44;6186974;23;20153;-75
2022/04/26 04:36:16;;;;;;;14.63;8.40;;;;;;;6.31;93.85;101630.50;6159867;23;20377;-76
2022/04/26 04:38:41;;;;;;;14.05;8.30;;;;;;;6.20;93.22;101609.50;6186477;23;20009;-77
2022/04/26 04:41:08;;;;;;;13.25;7.82;;;;;;;6.36;93.27;101634.63;6186172;23;20005;-75
2022/04/26 04:43:34;;;;;;;13.65;7.93;;;;;;;6.35;93.80;101627.81;6186923;23;20080;-75
2022/04/26 04:45:59;;;;;;;15.90;7.85;;;;;;;6.41;93.83;101636.16;6186738;23;20009;-75
2022/04/26 04:48:25;;;;;;;13.65;8.10;;;;;;;6.30;92.87;101613.44;6187209;23;20027;-77
2022/04/26 04:50:50;;;;;;;13.15;7.32;;;;;;;6.32;92.67;101618.50;6186344;23;20506;-76
2022/04/26 04:53:19;;;;;;;15.20;8.05;;;;;;;6.33;93.30;101627.88;6186787;23;20009;-75
2022/04/26 04:55:45;;;;;;;12.50;7.95;;;;;;;6.47;92.44;101655.63;6186506;23;20001;-76
2022/04/26 04:58:10;;;;;;;13.68;8.00;;;;;;;6.32;92.21;101632.19;6186526;23;20016;-75
2022/04/26 05:00:35;;;;;;;14.07;8.70;;;;;;;6.26;92.53;101623.81;6160000;23;20005;-75
2022/04/26 05:03:01;;;;;;;14.32;8.57;;;;;;;6.51;92.24;101658.06;6186647;23;20012;-76
2022/04/26 05:05:26;;;;;;;16.27;8.45;;;;;;;6.50;92.05;101656.41;6171656;23;20055;-74
2022/04/26 05:07:52;;;;;;;17.65;8.70;;;;;;;6.35;92.30;101636.34;6186313;23;20088;-75
2022/04/26 05:10:18;;;;;;;19.67;8.20;;;;;;;6.44;91.67;101650.63;6186856;23;20005;-76
2022/04/26 05:12:44;;;;;;;14.98;8.52;;;;;;;6.43;92.02;101647.22;6186594;23;20012;-77
2022/04/26 05:15:09;;;;;;;13.68;8.40;;;;;;;6.58;91.61;101674.91;6184788;23;20009;-76
2022/04/26 05:17:35;;;;;;;15.63;8.90;;;;;;;6.43;91.44;101654.91;6186236;23;20489;-75
2022/04/26 05:20:00;;;;;;;13.68;8.38;;;;;;;6.61;91.29;101684.28;6186401;23;20134;-76
2022/04/26 05:22:26;;;;;;;16.73;8.70;;;;;;;6.16;91.44;101610.47;6186428;23;19998;-75
2022/04/26 05:24:55;;;;;;;14.90;8.30;;;;;;;6.65;91.66;101685.00;6186714;23;20005;-75
2022/04/26 05:27:25;;;;;;;13.32;7.85;;;;;;;6.65;91.23;101680.69;6184557;23;20088;-75
2022/04/26 05:29:51;;;;;;;15.52;8.65;;;;;;;6.41;90.92;101646.44;6186218;23;20005;-75
2022/04/26 05:32:24;;;;;;;16.88;8.93;;;;;;;6.65;91.33;101680.69;6186408;23;20020;-81
2022/04/26 05:34:58;;;;;;;14.43;8.80;;;;;;;6.64;91.48;101673.06;6184501;23;20005;-82
2022/04/26 05:37:23;;;;;;;15.35;9.00;;;;;;;6.61;91.45;101671.44;6186290;23;20005;-82
2022/04/26 05:39:48;;;;;;;14.32;8.82;;;;;;;6.80;91.50;101705.88;6186363;23;20377;-81
2022/04/26 05:42:14;;;;;;;15.20;9.85;;;;;;;6.66;91.12;101673.84;6185609;23;20011;-72
2022/04/26 05:44:39;;;;;;;15.10;9.60;;;;;;;6.80;91.55;101702.47;6186167;23;20418;-78
2022/04/26 05:47:06;;;;;;;16.25;9.48;;;;;;;6.71;91.22;101679.69;6186141;23;20312;-82
2022/04/26 05:49:32;;;;;;;13.00;8.90;;;;;;;6.70;91.52;101681.41;6186637;23;20300;-80
2022/04/26 05:51:57;;;;;;;15.80;9.45;;;;;;;6.83;91.67;101695.50;6186450;23;20004;-81
2022/04/26 05:54:22;;;;;;;18.48;10.60;;;;;;;6.89;91.68;101702.16;6186391;23;20005;-74
2022/04/26 05:56:48;;;;;;;14.57;9.23;;;;;;;6.75;91.38;101678.66;6186231;23;20025;-76
2022/04/26 05:59:13;;;;;;;13.88;9.15;;;;;;;6.75;92.00;101683.81;6185920;23;20318;-78
2022/04/26 06:01:39;;;;;;;17.15;10.68;;;;;;;6.92;92.06;101706.34;6186019;23;20056;-76
2022/04/26 06:04:05;;;;;;;18.58;10.98;;;;;;;6.94;91.48;101702.84;6186377;23;20012;-72
2022/04/26 06:06:31;;;;;;;15.25;9.93;;;;;;;6.97;91.52;101704.44;6186041;23;20039;-81
2022/04/26 06:08:56;;;;;;;16.50;10.70;;;;;;;6.97;91.44;101707.84;6186254;23;20025;-76
2022/04/26 06:11:21;;;;;;;15.13;10.65;;;;;;;6.84;91.75;101680.94;6186130;23;20055;-75
2022/04/26 06:13:46;;;;;;;19.27;11.50;;;;;;;7.04;91.24;101714.47;6185890;23;20303;-81
2022/04/26 06:16:12;;;;;;;18.67;11.63;;;;;;;7.02;90.99;101711.13;6158921;23;20334;-76
2022/04/26 06:18:37;;;;;;;22.10;11.23;;;;;;;7.07;91.34;101719.50;6186378;23;20009;-75
2022/04/26 06:21:02;;;;;;;18.80;11.60;;;;;;;7.12;91.62;101722.75;6159172;23;20016;-73
2022/04/26 06:23:28;;;;;;;23.70;11.15;;;;;;;6.99;90.23;101700.97;6159196;23;20015;-74
2022/04/26 06:25:53;;;;;;;18.23;11.95;;;;;;;7.17;90.18;101728.56;6185718;23;20091;-80
2022/04/26 06:28:18;;;;;;;19.15;11.65;;;;;;;7.22;90.41;101733.56;6185894;23;20044;-75
2022/04/26 06:30:44;;;;;;;16.30;11.32;;;;;;;7.19;89.67;101721.66;6159680;23;20074;-76
2022/04/26 06:33:09;;;;;;;17.73;11.95;;;;;;;7.34;89.80;101737.44;6159044;23;20005;-80
2022/04/26 06:35:34;;;;;;;19.98;12.25;;;;;;;7.39;89.24;101736.38;6186078;23;20024;-76
2022/04/26 06:38:00;;;;;;;17.20;12.13;;;;;;;7.33;89.47;101716.03;6158116;23;20009;-75
2022/04/26 06:40:26;;;;;;;22.00;14.15;;;;;;;7.38;89.16;101709.03;6185652;23;20400;-79
2022/04/26 06:42:51;;;;;;;21.35;13.27;;;;;;;7.69;89.11;101733.63;6185923;23;20060;-79
2022/04/26 06:45:17;;;;;;;20.25;13.23;;;;;;;7.67;87.64;101727.66;6185848;23;20009;-79
2022/04/26 06:47:43;;;;;;;18.48;11.95;;;;;;;7.92;86.34;101743.88;6185954;23;20430;-81
2022/04/26 06:50:09;;;;;;;18.15;13.27;;;;;;;8.01;85.80;101745.28;6185920;23;20005;-83
2022/04/26 06:52:34;;;;;;;19.38;13.70;;;;;;;8.13;85.28;101749.13;6185899;23;20015;-82
2022/04/26 06:55:00;;;;;;;20.52;13.57;;;;;;;8.33;85.74;101749.19;6159803;23;20005;-79
2022/04/26 06:57:25;;;;;;;21.25;13.23;;;;;;;8.54;84.29;101737.22;6185532;23;20032;-79
2022/04/26 06:59:51;;;;;;;16.67;12.10;;;;;;;8.85;82.79;101744.59;6185497;23;20033;-75
2022/04/26 07:02:16;;;;;;;21.38;13.48;;;;;;;9.11;80.94;101728.00;6185795;23;20043;-79
2022/04/26 07:04:41;;;;;;;18.17;12.20;;;;;;;9.84;79.98;101753.19;6185000;23;20346;-76
2022/04/26 07:07:07;;;;;;;17.95;11.75;;;;;;;10.54;76.35;101724.09;6185283;23;20005;-78
2022/04/26 07:09:32;;;;;;;17.80;10.50;;;;;;;11.02;72.78;101756.19;6185722;23;20410;-78
2022/04/26 07:11:57;;;;;;;16.90;11.32;;;;;;;10.53;73.28;101734.50;6185843;23;20072;-83
2022/04/26 07:14:22;;;;;;;16.75;10.45;;;;;;;10.43;73.40;101761.69;6159375;23;20080;-77
2022/04/26 07:16:49;;;;;;;14.07;10.18;;;;;;;8.87;74.00;101549.59;6186221;22;20075;-81
2022/04/26 07:19:22;;;;;;;13.90;9.65;;;;;;;10.00;74.11;101766.19;6185420;23;20080;-84
2022/04/26 07:21:48;;;;;;;16.20;10.10;;;;;;;8.82;73.96;101614.16;6122521;22;20021;-83
2022/04/26 07:24:15;;;;;;;15.65;10.63;;;;;;;8.49;75.42;101546.13;6152651;23;20347;-84
2022/04/26 07:26:40;;;;;;;16.75;9.63;;;;;;;9.89;74.74;101765.84;6153464;23;20010;-82
2022/04/26 07:29:06;;;;;;;17.38;11.30;;;;;;;10.00;75.09;101761.03;6153040;23;20335;-77
2022/04/26 07:31:31;;;;;;;15.23;10.73;;;;;;;10.06;75.08;101771.94;6153346;23;20009;-81
2022/04/26 07:36:40;;;;;;;18.45;10.75;;;;;;;9.71;74.51;101727.06;6153468;23;20527;-79
2022/04/26 07:39:06;;;;;;;17.40;11.50;;;;;;;9.90;72.72;101755.47;6152525;23;20005;-78
2022/04/26 07:41:32;;;;;;;15.60;10.35;;;;;;;9.30;73.43;101679.94;6153221;23;20527;-80
2022/04/26 07:43:58;;;;;;;15.88;10.55;;;;;;;9.92;73.80;101776.03;6153115;23;20085;-78
2022/04/26 07:46:23;;;;;;;17.95;10.95;;;;;;;9.98;74.03;101786.09;6153280;23;20037;-82
2022/04/26 07:48:49;;;;;;;16.65;10.95;;;;;;;9.71;72.82;101770.09;6153208;23;20013;-80
2022/04/26 07:51:14;;;;;;;18.23;10.80;;;;;;;9.65;73.37;101788.44;6154928;23;20014;-81
2022/04/26 07:53:40;;;;;;;18.45;10.63;;;;;;;9.63;74.49;101783.31;6154666;23;20009;-81
2022/04/26 07:56:06;;;;;;;19.17;10.40;;;;;;;9.63;74.63;101777.31;6182937;23;20016;-81
2022/04/26 07:58:32;;;;;;;17.88;10.73;;;;;;;9.68;73.13;101793.44;6187321;23;20001;-78
2022/04/26 08:00:57;;;;;;;13.98;10.18;;;;;;;9.37;73.63;101753.53;6187121;23;20303;-81
2022/04/26 08:03:23;;;;;;;16.08;9.77;;;;;;;9.43;72.89;101765.28;6160742;23;20021;-82
2022/04/26 08:05:49;;;;;;;18.60;9.77;;;;;;;9.58;74.15;101781.84;6187317;23;20085;-82
2022/04/26 08:08:15;;;;;;;14.57;9.02;;;;;;;9.83;72.84;101799.66;6187004;23;20001;-80
2022/04/26 08:10:40;;;;;;;16.23;9.95;;;;;;;10.00;73.46;101805.75;6187363;23;20008;-79
2022/04/26 08:13:05;;;;;;;15.38;9.43;;;;;;;10.15;72.65;101805.97;6187371;23;20031;-82
2022/04/26 08:15:34;;;;;;;16.02;9.00;;;;;;;10.08;71.29;101792.50;6187468;23;20445;-81
2022/04/26 08:17:59;;;;;;;14.13;9.38;;;;;;;10.36;72.26;101817.09;6186880;23;20005;-80
2022/04/26 08:20:26;;;;;;;17.67;9.07;;;;;;;10.33;71.41;101820.66;6159208;23;20039;-86
2022/04/26 08:22:56;;;;;;;14.00;9.18;;;;;;;10.17;72.47;101823.06;6186491;23;20013;-82
2022/04/26 08:28:38;;;;;;;17.13;7.68;;;;;;;9.99;72.60;101827.28;6187141;23;20063;-81
2022/04/26 08:31:11;;;;;;;15.88;8.23;;;;;;;8.62;71.55;101616.75;6186870;23;20005;-81
2022/04/26 08:37:29;;;;;;;12.90;7.53;;;;;;;9.94;72.54;101826.69;6186839;23;20020;-81
2022/04/26 08:40:31;;;;;;;18.30;8.30;;;;;;;9.95;72.33;101838.66;6186477;23;20037;-82
2022/04/26 08:52:25;;;;;;;;;;;;;;;;;;;;;
2022/04/26 08:54:56;;;;;;;17.45;8.13;;;;;;;9.68;67.79;101643.84;6186199;23;20482;-80
2022/04/26 08:57:22;;;;;;;14.10;6.75;;;;;;;10.15;68.47;101705.31;6186751;23;20028;-81
2022/04/26 09:00:31;;;;;;;15.40;7.75;;;;;;;11.12;68.49;101844.47;6186866;23;20001;-81
2022/04/26 09:06:57;;;;;;;12.55;6.80;;;;;;;11.09;67.82;101845.41;6186729;23;20465;-83
2022/04/26 09:09:25;;;;;;;10.57;6.35;;;;;;;9.99;67.17;101695.69;6187077;23;20008;-82
2022/04/26 09:14:51;;;;;;;12.30;6.30;;;;;;;9.70;65.52;101667.81;6142976;23;20374;-78
2022/04/26 09:17:23;;;;;;;10.80;6.18;;;;;;;9.80;66.89;101663.09;6186508;23;20005;-82
2022/04/26 09:19:52;;;;;;;11.10;6.53;;;;;;;11.00;66.09;101848.44;6186639;23;20008;-84
2022/04/26 09:22:39;;;;;;;13.00;6.30;;;;;;;11.03;66.35;101855.25;6185716;23;20009;-84
2022/04/26 09:25:14;;;;;;;10.45;6.40;;;;;;;10.85;63.51;101842.28;6186358;23;20008;-80
2022/04/26 09:27:41;;;;;;;11.38;6.25;;;;;;;10.06;64.26;101701.41;6186651;23;19997;-83
2022/04/26 09:30:29;;;;;;;10.93;5.70;;;;;;;10.65;63.64;101782.97;6159329;23;20005;-80
2022/04/26 09:32:54;;;;;;;11.65;5.35;;;;;;;11.15;64.40;101860.63;6159839;23;20012;-83
2022/04/26 09:35:29;;;;;;;12.57;6.05;;;;;;;10.20;64.27;101680.09;6186723;23;20426;-81
2022/04/26 09:37:55;;;;;;;8.68;5.40;;;;;;;11.14;63.17;101803.84;6159814;23;20425;-83
2022/04/26 09:43:15;;;;;;;10.10;5.47;;;;;;;11.35;61.00;101851.06;6186291;23;20378;-82
2022/04/26 09:45:56;;;;;;;9.93;6.05;;;;;;;11.45;61.31;101880.72;6186372;23;20012;-80
2022/04/26 09:48:29;;;;;;;9.75;6.18;;;;;;;11.02;59.28;101815.63;6186285;23;20009;-81
2022/04/26 09:50:58;;;;;;;9.00;5.05;;;;;;;11.54;61.70;101876.84;6159879;23;20086;-80
2022/04/26 09:53:25;;;;;;;9.50;5.68;;;;;;;11.68;60.64;101883.00;6186565;23;20006;-86
2022/04/26 09:55:59;;;;;;;10.80;5.55;;;;;;;11.63;58.38;101842.75;6185900;23;20031;-84
2022/04/26 09:58:30;;;;;;;10.63;5.75;;;;;;;11.91;61.32;101871.50;6186209;23;20076;-77
2022/04/26 10:00:58;;;;;;;9.68;5.68;;;;;;;11.54;58.46;101794.06;6185849;23;20470;-80
2022/04/26 10:03:31;;;;;;;9.95;5.93;;;;;;;11.97;56.76;101897.06;6186007;23;20001;-81
2022/04/26 10:06:05;;;;;;;10.05;5.63;;;;;;;11.62;57.31;101847.09;6185927;23;20005;-78
2022/04/26 10:08:32;;;;;;;10.85;6.15;;;;;;;11.70;57.23;101855.31;6185195;23;20004;-83
2022/04/26 10:11:00;;;;;;;8.82;5.30;;;;;;;11.95;56.67;101896.31;6185573;23;20434;-75
2022/04/26 10:13:35;;;;;;;10.15;5.57;;;;;;;11.78;56.54;101854.88;6185489;23;20008;-75
2022/04/26 10:16:06;;;;;;;10.55;5.68;;;;;;;12.15;57.35;101895.28;6159564;23;20005;-78
2022/04/26 10:18:34;;;;;;;8.35;5.47;;;;;;;12.41;57.01;101898.25;6186003;23;20001;-77
2022/04/26 10:21:04;;;;;;;11.38;5.38;;;;;;;12.56;56.24;101900.81;6186107;23;20031;-78
2022/04/26 10:23:56;;;;;;;8.63;5.47;;;;;;;12.67;56.92;101896.81;6185935;23;20009;-77
2022/04/26 10:26:25;;;;;;;9.10;5.57;;;;;;;12.73;54.86;101866.22;6185510;23;20008;-79
2022/04/26 10:29:06;;;;;;;8.95;5.55;;;;;;;12.98;54.26;101876.06;6185963;23;20058;-81
2022/04/26 10:31:37;;;;;;;8.95;5.57;;;;;;;13.18;53.84;101903.47;6186210;23;20012;-77
2022/04/26 10:34:15;;;;;;;9.85;4.90;;;;;;;13.19;53.41;101912.97;6186177;23;20083;-83
2022/04/26 10:36:41;;;;;;;9.50;4.93;;;;;;;13.09;52.35;101909.19;6185810;23;20011;-85
2022/04/26 10:39:06;;;;;;;8.88;5.15;;;;;;;13.13;53.77;101916.69;6186064;23;20023;-74
2022/04/26 10:41:37;;;;;;;10.55;5.20;;;;;;;12.84;51.19;101897.56;6185845;23;20438;-73
2022/04/26 10:44:19;;;;;;;9.32;5.72;;;;;;;12.73;52.28;101917.22;6185535;23;20497;-74
2022/04/26 10:46:55;;;;;;;9.10;5.72;;;;;;;12.52;52.22;101898.50;6159540;23;20032;-75
2022/04/26 10:49:22;;;;;;;9.13;5.18;;;;;;;12.70;52.50;101917.41;6185437;23;20490;-74
2022/04/26 10:51:47;;;;;;;10.23;5.80;;;;;;;12.76;53.10;101911.88;6185277;23;20055;-75
2022/04/26 10:54:12;;;;;;;15.82;6.20;;;;;;;12.94;53.00;101921.22;6185329;23;20308;-85
2022/04/26 10:56:38;;;;;;;10.38;6.20;;;;;;;12.92;51.98;101908.34;6184728;23;20001;-74
2022/04/26 10:59:15;;;;;;;10.15;5.72;;;;;;;13.22;52.24;101919.72;6185349;23;20001;-81
2022/04/26 11:01:42;;;;;;;11.50;5.85;;;;;;;13.31;51.84;101909.66;6185835;23;20424;-84
2022/04/26 11:04:16;;;;;;;10.70;6.28;;;;;;;13.58;53.55;101914.19;6185534;23;20120;-75
2022/04/26 11:06:42;;;;;;;9.45;6.63;;;;;;;13.60;53.47;101920.13;6185757;23;20308;-74
2022/04/26 11:09:12;;;;;;;9.57;6.18;;;;;;;13.68;51.69;101925.69;6185456;23;20005;-79
2022/04/26 11:11:54;;;;;;;9.83;6.30;;;;;;;13.50;51.68;101935.38;6185536;23;20005;-78
2022/04/26 11:14:22;;;;;;;10.98;7.03;;;;;;;13.24;51.80;101923.88;6185594;23;20033;-75
2022/04/26 11:16:58;;;;;;;11.73;6.55;;;;;;;13.11;52.81;101910.75;6185901;23;20307;-84
2022/04/26 11:19:32;;;;;;;9.98;6.63;;;;;;;12.92;52.48;101908.34;6185993;23;20084;-80
2022/04/26 11:22:04;;;;;;;9.85;6.57;;;;;;;13.07;54.18;101929.16;6185601;23;20005;-82
2022/04/26 11:29:58;;;;;;;12.10;6.53;;;;;;;13.17;51.83;101922.53;6187596;23;20059;-80
2022/04/26 11:32:28;;;;;;;11.48;6.95;;;;;;;13.11;51.96;101905.56;6187659;23;20009;-84
2022/04/26 11:34:53;;;;;;;10.57;6.60;;;;;;;13.21;52.57;101921.47;6187500;23;20419;-83
2022/04/26 11:37:18;;;;;;;11.48;6.25;;;;;;;13.20;51.67;101918.06;6187357;23;20008;-81
2022/04/26 11:39:44;;;;;;;10.55;6.40;;;;;;;13.23;50.01;101927.41;6159402;23;20012;-78
2022/04/26 11:42:11;;;;;;;12.18;6.07;;;;;;;13.12;51.38;101912.44;6187549;23;20001;-77
2022/04/26 11:44:37;;;;;;;13.02;6.22;;;;;;;13.15;50.20;101933.00;6187179;23;20016;-77
2022/04/26 11:47:02;;;;;;;11.07;5.53;;;;;;;12.97;47.40;101920.22;6187789;23;20001;-79
2022/04/26 11:49:40;;;;;;;12.30;5.88;;;;;;;12.59;48.98;101866.16;6187548;23;20012;-80
2022/04/26 11:52:06;;;;;;;10.35;6.38;;;;;;;12.93;49.98;101912.63;6187186;23;20040;-78
2022/04/26 11:54:38;;;;;;;10.55;6.32;;;;;;;12.34;46.74;101825.19;6187651;23;20032;-83
2022/04/26 11:57:04;;;;;;;;;;;;;;;13.07;48.06;101940.34;6162002;23;20005;-79
2022/04/26 11:59:33;;;;;;;9.60;6.15;;;;;;;12.71;46.97;101900.94;6187363;23;19987;-81
2022/04/26 12:01:58;;;;;;;9.75;6.38;;;;;;;12.45;48.37;101846.16;6161277;23;20014;-79
2022/04/26 12:04:24;;;;;;;9.68;5.95;;;;;;;12.60;47.64;101865.25;6187565;23;20013;-80
2022/04/26 12:06:50;;;;;;;12.07;5.85;;;;;;;12.37;45.66;101853.50;6187475;23;20334;-80
2022/04/26 12:09:16;;;;;;;10.00;5.90;;;;;;;12.99;47.10;101950.34;6187125;23;20085;-79
2022/04/26 12:11:44;;;;;;;9.80;5.57;;;;;;;12.96;47.09;101934.09;6186843;23;20015;-80
2022/04/26 12:14:20;;;;;;;10.07;5.70;;;;;;;12.80;47.51;101896.06;6161263;23;20005;-80
2022/04/26 12:16:49;;;;;;;9.07;5.43;;;;;;;12.76;47.43;101894.56;6187505;23;20076;-79
2022/04/26 12:19:15;;;;;;;10.43;5.88;;;;;;;12.97;47.03;101940.97;6187535;23;20001;-80
2022/04/26 12:21:54;;;;;;;10.30;5.50;;;;;;;12.60;47.91;101865.25;6186977;23;20523;-80
2022/04/26 12:24:22;;;;;;;10.25;6.13;;;;;;;13.04;47.75;101913.78;6184924;23;20096;-81
2022/04/26 12:27:14;;;;;;;9.45;5.03;;;;;;;13.39;47.33;101936.00;6187483;23;20441;-82
2022/04/26 12:29:48;;;;;;;8.98;5.30;;;;;;;13.49;47.63;101939.75;6185743;23;20300;-84
2022/04/26 12:32:15;;;;;;;10.48;5.78;;;;;;;13.51;45.22;101933.63;6186223;23;20016;-78
2022/04/26 12:35:11;;;;;;;10.50;5.88;;;;;;;13.43;46.08;101921.91;6187027;23;20055;-79
2022/04/26 12:37:46;;;;;;;9.88;5.38;;;;;;;12.52;45.48;101758.59;6187049;23;20012;-77
2022/04/26 12:40:12;;;;;;;8.75;4.95;;;;;;;13.21;43.62;101877.38;6187113;23;20016;-79
2022/04/26 12:42:39;;;;;;;7.80;5.50;;;;;;;13.49;46.49;101912.97;6186333;23;20008;-78
2022/04/26 12:45:12;;;;;;;10.07;5.80;;;;;;;13.41;48.12;101879.66;6186992;23;20072;-78
2022/04/26 12:50:35;;;;;;;9.15;6.38;;;;;;;13.94;47.19;101937.97;6154891;23;20048;-80
2022/04/26 12:53:02;;;;;;;8.80;6.10;;;;;;;13.81;46.43;101923.22;6154562;23;20104;-80
2022/04/26 12:55:32;;;;;;;11.13;6.05;;;;;;;13.95;48.53;101936.19;6154314;23;20089;-78
2022/04/26 12:58:03;;;;;;;11.48;5.82;;;;;;;13.92;47.24;101949.38;6154553;23;20010;-78
2022/04/26 13:00:29;;;;;;;9.60;6.07;;;;;;;13.84;46.66;101939.44;6154393;23;20128;-77
2022/04/26 13:02:57;;;;;;;9.68;5.95;;;;;;;13.77;47.98;101935.56;6154241;23;20056;-78
2022/04/26 13:05:44;;;;;;;9.18;5.55;;;;;;;13.77;47.54;101944.16;6154462;23;20009;-79
2022/04/26 13:08:11;;;;;;;8.85;5.30;;;;;;;13.74;47.75;101928.75;6154251;23;20089;-79
2022/04/26 13:10:37;;;;;;;9.50;6.10;;;;;;;13.86;48.44;101929.78;6154434;23;20144;-79
2022/04/26 13:13:03;;;;;;;8.10;5.78;;;;;;;13.71;47.47;101903.00;6154681;23;20140;-79
2022/04/26 13:15:29;;;;;;;11.80;5.80;;;;;;;14.00;48.38;101942.81;6153866;23;20427;-78
2022/04/26 13:17:54;;;;;;;12.57;6.13;;;;;;;13.73;46.49;101913.28;6160643;23;20005;-79
2022/04/26 13:20:20;;;;;;;9.13;6.10;;;;;;;13.78;46.79;101932.03;6185243;23;20051;-80
2022/04/26 13:23:01;;;;;;;8.40;5.93;;;;;;;12.70;47.57;101757.56;6186237;23;20028;-83
2022/04/26 13:25:26;;;;;;;10.48;5.70;;;;;;;13.84;47.91;101933.41;6186782;23;20039;-80
2022/04/26 13:28:11;;;;;;;8.90;5.93;;;;;;;13.60;46.82;101920.13;6186756;23;20001;-80
2022/04/26 13:30:36;;;;;;;8.90;5.85;;;;;;;13.65;47.80;101929.28;6186072;23;20035;-80
2022/04/26 13:33:03;;;;;;;10.30;5.43;;;;;;;13.80;48.10;101935.38;6186615;23;19997;-79
2022/04/26 13:35:28;;;;;;;11.18;5.80;;;;;;;13.95;47.70;101931.00;6186678;23;20031;-80
2022/04/26 13:37:55;;;;;;;11.77;5.72;;;;;;;13.27;47.70;101803.56;6186392;23;20437;-80
2022/04/26 13:40:21;;;;;;;9.90;6.00;;;;;;;14.13;50.55;101918.69;6186546;23;20005;-80
2022/04/26 13:42:47;;;;;;;12.38;6.47;;;;;;;14.11;47.22;101939.56;6186334;23;20005;-83
2022/04/26 13:45:13;;;;;;;10.88;6.13;;;;;;;13.61;46.51;101882.84;6186068;23;20052;-80
2022/04/26 13:47:39;;;;;;;9.05;5.28;;;;;;;13.70;47.47;101890.09;6185725;23;20036;-82
2022/04/26 13:50:06;;;;;;;10.02;5.28;;;;;;;13.96;46.94;101925.75;6186505;23;20008;-80
2022/04/26 13:52:32;;;;;;;9.38;5.60;;;;;;;13.64;46.06;101903.44;6186073;23;20450;-84
2022/04/26 13:54:57;;;;;;;13.70;6.20;;;;;;;13.71;46.30;101938.50;6186459;23;20001;-83
2022/04/26 13:57:24;;;;;;;8.30;5.47;;;;;;;13.71;47.80;101949.72;6186038;23;20075;-83
2022/04/26 13:59:49;;;;;;;9.50;5.55;;;;;;;13.66;47.59;101946.53;6186073;23;20081;-83
2022/04/26 14:02:14;;;;;;;8.45;5.60;;;;;;;13.54;46.80;101925.66;6185713;23;20025;-84
2022/04/26 14:04:40;;;;;;;9.68;5.88;;;;;;;13.82;46.34;101946.50;6186079;23;20331;-82
2022/04/26 14:07:34;;;;;;;8.73;5.13;;;;;;;13.86;46.22;101950.56;6186490;23;20012;-82
2022/04/26 14:10:43;;;;;;;8.57;5.10;;;;;;;13.91;45.59;101950.31;6013529;23;20444;-81
2022/04/26 14:22:22;;;;;;;9.27;5.28;;;;;;;13.33;44.67;101746.97;6040524;23;20046;-83
2022/04/26 14:25:16;;;;;;;8.90;5.15;;;;;;;14.63;44.90;101949.41;6066217;23;20066;-83
2022/04/26 14:27:55;;;;;;;7.88;5.22;;;;;;;13.36;44.13;101761.50;6066080;23;20007;-83
2022/04/26 14:30:20;;;;;;;9.32;5.53;;;;;;;13.41;44.94;101765.50;6066074;23;20011;-83
2022/04/26 14:35:53;;;;;;;10.75;5.00;;;;;;;13.53;44.62;101763.09;6066101;23;20073;-83
2022/04/26 14:38:24;;;;;;;11.57;5.65;;;;;;;13.82;44.68;101800.25;6065862;23;20011;-82
2022/04/26 14:40:56;;;;;;;9.80;6.00;;;;;;;14.43;45.13;101896.03;6065795;23;20019;-82
2022/04/26 14:43:33;;;;;;;9.68;5.38;;;;;;;13.52;44.15;101744.09;6173529;22;20027;-84
2022/04/26 14:45:59;;;;;;;12.70;5.43;;;;;;;14.93;44.52;101965.69;6185564;23;20434;-77
2022/04/26 14:48:34;;;;;;;9.55;5.18;;;;;;;14.81;44.54;101953.44;6185299;23;20001;-78
2022/04/26 14:51:11;;;;;;;9.60;5.43;;;;;;;13.29;43.58;101745.50;6185333;23;20441;-77
2022/04/26 14:53:38;;;;;;;10.63;5.10;;;;;;;14.46;43.77;101965.22;6141107;23;20045;-80
2022/04/26 14:56:06;;;;;;;9.05;5.22;;;;;;;14.21;43.29;101955.44;6156304;23;20040;-80
2022/04/26 14:58:35;;;;;;;7.80;4.78;;;;;;;14.21;43.56;101971.84;6156092;23;20090;-80
2022/04/26 15:01:00;;;;;;;7.93;4.97;;;;;;;14.21;43.69;101974.44;6155515;23;20010;-80
2022/04/26 15:03:27;;;;;;;10.38;5.00;;;;;;;14.00;43.24;101968.78;6155126;23;20016;-80
2022/04/26 15:05:58;;;;;;;9.80;4.82;;;;;;;14.03;44.24;101952.16;6155886;23;20006;-80
2022/04/26 15:11:07;;;;;;;7.28;4.82;;;;;;;14.05;42.95;101924.34;6155832;23;20390;-78
2022/04/26 15:19:00;;;;;;;7.18;4.53;;;;;;;14.62;42.53;101966.75;6155299;23;20021;-84
2022/04/26 15:21:25;;;;;;;8.13;4.75;;;;;;;14.54;41.45;101966.41;6155685;23;20017;-81
2022/04/26 15:23:53;;;;;;;10.30;5.25;;;;;;;14.45;42.53;101966.94;6155686;23;20005;-75
2022/04/26 15:26:18;;;;;;;7.38;4.60;;;;;;;14.43;42.26;101948.00;6156052;23;20020;-79
2022/04/26 15:28:44;;;;;;;7.90;4.60;;;;;;;14.56;42.78;101964.56;6130060;23;20367;-81
2022/04/26 15:31:10;;;;;;;7.35;4.80;;;;;;;14.07;41.99;101894.78;6155965;23;20006;-81
2022/04/26 15:33:38;;;;;;;8.55;4.65;;;;;;;14.41;42.56;101925.63;6155408;23;20438;-80
2022/04/26 15:36:04;;;;;;;7.55;4.18;;;;;;;14.62;41.30;101961.56;6155822;23;20002;-80
2022/04/26 15:38:33;;;;;;;9.32;5.00;;;;;;;14.55;41.82;101956.84;6155648;23;20005;-80
2022/04/26 15:41:01;;;;;;;8.27;4.10;;;;;;;14.15;41.25;101927.22;6155826;23;20016;-77
2022/04/26 15:43:30;;;;;;;8.57;4.80;;;;;;;14.13;42.55;101947.25;6154441;23;20009;-76
2022/04/26 15:45:56;;;;;;;8.63;4.15;;;;;;;13.82;41.81;101917.94;6154302;23;20064;-78
2022/04/26 15:48:23;;;;;;;7.97;4.50;;;;;;;14.11;42.06;101972.50;6129260;23;20002;-80
2022/04/26 15:50:48;;;;;;;7.90;3.95;;;;;;;14.03;41.46;101981.56;6155312;23;20012;-80
2022/04/26 15:53:14;;;;;;;7.00;3.88;;;;;;;13.83;41.00;101957.72;6155473;23;20044;-79
2022/04/26 15:55:39;;;;;;;6.72;3.90;;;;;;;13.82;41.66;101975.03;6155686;23;20005;-79
2022/04/26 15:58:05;;;;;;;11.05;4.05;;;;;;;13.54;40.72;101946.41;6155575;23;20080;-81
2022/04/26 16:00:31;;;;;;;8.13;3.83;;;;;;;13.64;41.30;101971.75;6129229;23;20002;-80
2022/04/26 16:02:56;;;;;;;9.00;4.10;;;;;;;13.33;41.81;101927.72;6129474;23;20066;-81
2022/04/26 16:05:22;;;;;;;8.43;4.03;;;;;;;13.66;41.97;101980.28;6155581;23;20423;-81